Time;durP1;ratioP1;P1;durP2;ratioP2;P2;SDS_P1;SDS_P2;PMS_P1;PMS_P2;Temp;Humidity;BMP_temperature;BMP_pressure;BME280_temperature;BME280_humidity;BME280_pressure;Samples;Min_cycle;Max_cycle;Signal;HPM_P1;HPM_P2
2023/01/08 00:03:07;;;;;;;27.58;17.65;;;;;;;6.82;100.00;99702.97;20862396;28;20061;-72
2023/01/08 00:13:08;;;;;;;28.40;16.85;;;;;;;6.81;100.00;99686.50;20862644;28;20168;-72
2023/01/08 00:23:09;;;;;;;25.48;15.75;;;;;;;6.84;100.00;99688.19;20865878;28;20049;-72
2023/01/08 00:33:10;;;;;;;23.45;14.48;;;;;;;6.94;100.00;99649.00;20860357;28;20048;-72
2023/01/08 00:43:12;;;;;;;23.02;13.73;;;;;;;7.00;100.00;99634.22;20862363;28;20060;-72
2023/01/08 00:53:13;;;;;;;22.60;14.25;;;;;;;7.04;100.00;99617.66;20860657;28;20064;-72
2023/01/08 01:03:14;;;;;;;17.95;10.10;;;;;;;7.25;100.00;99617.38;20858405;28;20076;-72
2023/01/08 01:13:16;;;;;;;13.65;6.65;;;;;;;7.63;100.00;99618.53;20860895;28;20052;-72
2023/01/08 01:23:17;;;;;;;8.95;4.25;;;;;;;8.00;100.00;99626.59;20861279;28;20119;-72
2023/01/08 01:33:18;;;;;;;7.97;4.38;;;;;;;8.28;100.00;99628.66;20858753;28;20057;-72
2023/01/08 01:43:19;;;;;;;7.53;4.28;;;;;;;8.18;100.00;99627.97;20858071;28;20052;-72
2023/01/08 01:53:21;;;;;;;7.85;4.07;;;;;;;8.21;100.00;99623.56;20856273;28;20063;-72
2023/01/08 02:03:22;;;;;;;8.35;3.95;;;;;;;8.07;100.00;99622.97;20855689;28;20449;-72
2023/01/08 02:13:23;;;;;;;7.53;4.10;;;;;;;7.93;100.00;99593.69;20855864;28;20061;-72
2023/01/08 02:23:24;;;;;;;8.63;4.53;;;;;;;7.89;100.00;99587.66;20865457;28;20093;-72
2023/01/08 02:33:26;;;;;;;8.52;4.70;;;;;;;7.81;100.00;99568.72;20875632;28;20056;-72
2023/01/08 02:43:27;;;;;;;7.15;4.10;;;;;;;7.82;100.00;99577.38;20871352;28;20068;-71
2023/01/08 02:53:28;;;;;;;9.88;4.70;;;;;;;7.77;100.00;99559.22;20869402;28;20060;-72
2023/01/08 03:03:30;;;;;;;7.70;4.22;;;;;;;7.75;100.00;99532.31;20867700;28;20498;-71
2023/01/08 03:13:31;;;;;;;8.80;4.53;;;;;;;7.77;100.00;99533.16;20865409;28;20513;-71
2023/01/08 03:23:33;;;;;;;9.63;5.40;;;;;;;7.72;100.00;99519.34;20866550;28;20100;-72
2023/01/08 03:33:34;;;;;;;9.55;5.55;;;;;;;7.69;100.00;99517.66;20864689;28;20056;-72
2023/01/08 03:43:35;;;;;;;9.73;5.82;;;;;;;7.66;100.00;99503.81;20864989;28;20464;-73
2023/01/08 03:53:37;;;;;;;11.18;6.35;;;;;;;7.66;100.00;99520.31;20864263;28;20370;-72
2023/01/08 04:03:38;;;;;;;15.40;8.05;;;;;;;7.63;100.00;99512.56;20862787;28;20079;-73
2023/01/08 04:13:39;;;;;;;15.02;8.38;;;;;;;7.65;100.00;99512.53;20861986;28;20061;-74
2023/01/08 04:23:40;;;;;;;13.13;6.60;;;;;;;7.67;100.00;99515.97;20864698;28;20053;-74
2023/01/08 04:33:42;;;;;;;11.75;7.25;;;;;;;7.63;100.00;99516.91;20859987;28;20413;-74
2023/01/08 04:43:43;;;;;;;11.80;6.72;;;;;;;7.60;100.00;99529.97;20858977;28;20199;-74
2023/01/08 04:53:45;;;;;;;10.88;6.13;;;;;;;7.58;100.00;99534.38;20859673;28;20410;-74
2023/01/08 05:03:46;;;;;;;11.95;6.32;;;;;;;7.53;100.00;99541.41;20858725;28;20531;-74
2023/01/08 05:13:47;;;;;;;12.93;6.88;;;;;;;7.53;100.00;99537.06;20859548;28;20065;-74
2023/01/08 05:23:49;;;;;;;12.88;6.55;;;;;;;7.56;100.00;99517.91;20861434;28;20057;-74
2023/01/08 05:33:50;;;;;;;11.38;6.25;;;;;;;7.61;100.00;99526.50;20856801;28;20060;-73
2023/01/08 05:43:51;;;;;;;12.15;6.82;;;;;;;7.62;100.00;99510.00;20873632;23;20582;-78
2023/01/08 05:53:53;;;;;;;10.45;6.90;;;;;;;7.58;100.00;99498.75;20859402;28;20049;-75
2023/01/08 06:03:54;;;;;;;10.73;6.10;;;;;;;7.62;100.00;99491.75;20873879;28;20240;-74
2023/01/08 06:13:56;;;;;;;10.05;5.35;;;;;;;7.67;100.00;99469.09;20873554;28;20531;-75
2023/01/08 06:23:57;;;;;;;7.68;4.20;;;;;;;7.88;100.00;99484.28;20875804;28;20057;-74
2023/01/08 06:33:58;;;;;;;8.27;4.00;;;;;;;7.88;100.00;99483.44;20870742;28;20460;-74
2023/01/08 06:43:59;;;;;;;7.60;3.75;;;;;;;7.82;100.00;99483.56;20871333;28;20056;-74
2023/01/08 06:54:00;;;;;;;6.68;3.55;;;;;;;7.82;100.00;99494.84;20869602;28;20488;-75
2023/01/08 07:04:02;;;;;;;10.38;4.15;;;;;;;7.96;100.00;99492.81;20869319;28;20046;-76
2023/01/08 07:14:03;;;;;;;8.43;3.83;;;;;;;7.98;100.00;99478.00;20866433;28;20053;-77
2023/01/08 07:24:06;;;;;;;6.28;3.78;;;;;;;7.95;100.00;99496.34;20867695;28;20085;-74
2023/01/08 07:34:07;;;;;;;6.80;3.38;;;;;;;7.92;100.00;99512.03;20866525;28;20384;-76
2023/01/08 07:44:08;;;;;;;6.93;3.35;;;;;;;7.91;100.00;99504.25;20867197;28;20485;-75
2023/01/08 07:54:10;;;;;;;6.88;3.97;;;;;;;8.00;100.00;99513.59;20865725;28;20524;-75
2023/01/08 08:04:11;;;;;;;8.55;4.00;;;;;;;7.93;100.00;99505.91;20863856;28;20060;-76
2023/01/08 08:14:13;;;;;;;11.75;4.40;;;;;;;7.96;100.00;99500.66;20864442;28;20057;-75
2023/01/08 08:24:15;;;;;;;9.50;5.88;;;;;;;8.01;100.00;99489.28;20862304;28;20147;-77
2023/01/08 08:34:16;;;;;;;8.38;4.65;;;;;;;8.03;100.00;99492.69;20862481;28;20498;-76
2023/01/08 08:44:17;;;;;;;8.65;4.75;;;;;;;8.08;100.00;99493.47;20861586;28;20057;-77
2023/01/08 08:54:18;;;;;;;8.20;4.30;;;;;;;8.13;100.00;99489.00;20861307;28;20057;-76
2023/01/08 09:04:20;;;;;;;7.35;3.35;;;;;;;8.25;100.00;99480.09;20867690;28;20060;-75
2023/01/08 09:14:21;;;;;;;10.65;3.70;;;;;;;8.39;100.00;99476.34;20867386;28;20432;-76
2023/01/08 09:24:22;;;;;;;7.32;3.53;;;;;;;8.40;100.00;99471.97;20864221;28;20107;-74
2023/01/08 09:34:24;;;;;;;6.03;3.72;;;;;;;8.43;100.00;99484.94;20860071;28;20548;-77
2023/01/08 09:44:25;;;;;;;9.00;5.00;;;;;;;8.61;100.00;99481.91;20858513;28;20053;-74
2023/01/08 09:54:26;;;;;;;6.10;3.70;;;;;;;8.55;100.00;99483.81;20860843;28;20056;-75
2023/01/08 10:04:27;;;;;;;9.82;4.82;;;;;;;8.70;100.00;99473.88;20857619;28;20502;-75
2023/01/08 10:14:29;;;;;;;12.50;7.13;;;;;;;8.79;100.00;99459.78;20856842;28;20053;-76
2023/01/08 10:24:30;;;;;;;8.98;4.55;;;;;;;8.94;100.00;99459.41;20858695;28;20057;-75
2023/01/08 10:34:32;;;;;;;5.80;3.20;;;;;;;9.11;100.00;99439.88;20856410;28;20057;-75
2023/01/08 10:44:34;;;;;;;7.13;3.70;;;;;;;9.23;100.00;99414.28;20858567;28;20057;-75
2023/01/08 10:54:36;;;;;;;5.30;2.67;;;;;;;9.35;100.00;99402.66;20871395;28;20057;-76
2023/01/08 11:04:37;;;;;;;6.50;2.50;;;;;;;9.59;100.00;99389.84;20871458;28;20506;-75
2023/01/08 11:14:38;;;;;;;5.65;1.90;;;;;;;9.92;100.00;99360.09;20868661;28;20104;-75
2023/01/08 11:24:41;;;;;;;4.50;1.80;;;;;;;9.96;100.00;99348.63;20868381;28;20477;-76
2023/01/08 11:34:42;;;;;;;4.10;1.92;;;;;;;10.01;100.00;99341.53;20866494;28;20064;-76
2023/01/08 11:44:44;;;;;;;5.40;1.67;;;;;;;10.11;100.00;99325.53;20911740;23;20057;-76
2023/01/08 11:54:46;;;;;;;3.65;1.65;;;;;;;10.41;100.00;99298.44;20871172;28;20529;-78
2023/01/08 12:04:47;;;;;;;4.38;2.00;;;;;;;10.60;100.00;99282.13;20868800;28;20136;-78
2023/01/08 12:14:48;;;;;;;4.57;1.40;;;;;;;10.41;100.00;99287.97;20867110;28;20461;-75
2023/01/08 12:24:49;;;;;;;3.00;1.35;;;;;;;10.26;100.00;99286.72;20863117;28;20057;-77
2023/01/08 12:34:51;;;;;;;2.47;1.20;;;;;;;10.20;100.00;99267.69;20860222;28;20053;-77
2023/01/08 12:44:53;;;;;;;3.05;1.15;;;;;;;10.18;100.00;99253.81;20857174;28;20490;-77
2023/01/08 12:54:55;;;;;;;3.08;1.15;;;;;;;10.12;100.00;99260.09;20860273;28;20476;-76
2023/01/08 13:04:56;;;;;;;2.15;0.85;;;;;;;10.01;100.00;99247.38;20859456;28;20049;-77
2023/01/08 13:14:58;;;;;;;2.10;1.02;;;;;;;10.00;100.00;99229.09;20864205;28;20061;-76
2023/01/08 13:24:59;;;;;;;2.55;1.00;;;;;;;10.18;100.00;99214.59;20858973;28;20056;-77
2023/01/08 13:35:02;;;;;;;2.38;1.00;;;;;;;10.14;100.00;99215.59;20857253;28;20099;-77
2023/01/08 13:45:03;;;;;;;2.15;0.93;;;;;;;10.31;100.00;99210.69;20856557;28;20061;-76
2023/01/08 13:55:05;;;;;;;1.73;0.80;;;;;;;10.28;100.00;99200.31;20857137;28;20057;-76
2023/01/08 14:05:06;;;;;;;2.72;1.10;;;;;;;10.17;100.00;99184.97;20853157;28;20063;-74
2023/01/08 14:15:08;;;;;;;1.80;0.82;;;;;;;10.07;100.00;99156.56;20854880;28;20049;-74
2023/01/08 14:25:10;;;;;;;2.20;0.90;;;;;;;9.90;100.00;99150.09;20870493;28;20061;-72
2023/01/08 14:35:12;;;;;;;2.28;0.80;;;;;;;9.78;100.00;99166.22;20868963;28;20103;-74
2023/01/08 14:45:14;;;;;;;3.80;1.20;;;;;;;9.73;100.00;99152.44;20867498;28;20460;-74
2023/01/08 14:55:17;;;;;;;3.22;1.15;;;;;;;9.76;100.00;99141.88;20863134;28;20109;-75
2023/01/08 15:05:18;;;;;;;1.95;0.82;;;;;;;9.68;100.00;99138.66;20860146;28;20053;-74
2023/01/08 15:15:20;;;;;;;2.33;1.05;;;;;;;9.47;100.00;99120.13;20865170;28;20549;-74
2023/01/08 15:25:21;;;;;;;2.38;0.98;;;;;;;9.23;100.00;99100.00;20859662;28;20542;-75
2023/01/08 15:35:24;;;;;;;3.13;1.40;;;;;;;9.21;100.00;99097.47;20862996;28;20087;-76
2023/01/08 15:45:27;;;;;;;2.75;1.20;;;;;;;9.18;100.00;99075.78;20864326;28;20084;-76
2023/01/08 15:55:31;;;;;;;5.72;2.42;;;;;;;8.89;100.00;99068.84;20862812;28;20506;-76
2023/01/08 16:05:32;;;;;;;4.43;1.97;;;;;;;8.63;100.00;99060.06;20856238;28;20095;-76
2023/01/08 16:15:33;;;;;;;3.63;1.80;;;;;;;8.60;100.00;99059.28;20858160;28;20057;-76
2023/01/08 16:25:35;;;;;;;4.47;2.00;;;;;;;8.68;100.00;99046.88;20859501;28;20473;-77
2023/01/08 16:35:36;;;;;;;4.60;1.90;;;;;;;8.42;100.00;99027.59;20854960;28;20047;-76
2023/01/08 16:45:38;;;;;;;13.23;7.28;;;;;;;8.31;100.00;99005.31;20828421;28;20441;-76
2023/01/08 16:55:39;;;;;;;11.55;6.68;;;;;;;8.28;100.00;98988.00;20804959;28;20049;-76
2023/01/08 17:05:40;;;;;;;7.53;4.05;;;;;;;8.34;100.00;98972.19;20805285;28;20457;-78
2023/01/08 17:15:42;;;;;;;9.15;3.72;;;;;;;8.33;100.00;98954.81;20805234;28;20099;-75
2023/01/08 17:25:43;;;;;;;11.52;5.43;;;;;;;8.31;100.00;98967.06;20808760;28;20068;-74
2023/01/08 17:35:45;;;;;;;7.22;3.05;;;;;;;8.23;100.00;98942.94;20802904;28;20048;-75
2023/01/08 17:45:46;;;;;;;7.00;3.33;;;;;;;8.03;100.00;98937.47;20814347;23;20163;-74
2023/01/08 17:55:47;;;;;;;8.75;3.85;;;;;;;7.78;100.00;98929.50;20814447;28;20422;-73
2023/01/08 18:05:49;;;;;;;7.30;3.83;;;;;;;7.61;100.00;98927.34;20822609;28;20055;-73
2023/01/08 18:15:50;;;;;;;10.23;5.10;;;;;;;7.44;100.00;98907.84;20816492;28;20049;-73
2023/01/08 18:25:51;;;;;;;10.27;5.30;;;;;;;7.33;100.00;98894.28;20813231;28;20061;-73
2023/01/08 18:35:53;;;;;;;10.88;6.47;;;;;;;7.27;100.00;98876.19;20814402;28;20065;-75
2023/01/08 18:45:54;;;;;;;10.88;6.53;;;;;;;7.26;100.00;98878.84;20816767;28;20045;-74
2023/01/08 18:55:55;;;;;;;12.43;7.10;;;;;;;7.28;100.00;98879.63;20819314;28;20053;-72
2023/01/08 19:05:57;;;;;;;17.40;11.40;;;;;;;7.33;100.00;98847.41;20810364;28;20045;-73
2023/01/08 19:15:59;;;;;;;60.72;38.22;;;;;;;7.35;100.00;98836.94;20814398;28;20123;-72
2023/01/08 19:26:01;;;;;;;13.80;8.30;;;;;;;7.33;100.00;98834.38;20812330;28;20096;-73
2023/01/08 19:36:04;;;;;;;12.25;7.43;;;;;;;7.39;100.00;98818.59;20801459;28;20116;-72
2023/01/08 19:46:05;;;;;;;12.63;8.15;;;;;;;7.45;100.00;98797.56;20796527;28;20045;-73
2023/01/08 19:56:07;;;;;;;10.60;6.28;;;;;;;7.49;100.00;98781.88;20800792;28;20058;-71
2023/01/08 20:06:08;;;;;;;12.25;5.65;;;;;;;7.43;100.00;98775.94;20797941;28;20053;-71
2023/01/08 20:16:10;;;;;;;9.70;6.20;;;;;;;7.53;100.00;98770.47;20800174;28;21302;-71
2023/01/08 20:26:12;;;;;;;14.00;9.18;;;;;;;7.51;100.00;98752.25;20801236;28;20046;-71
2023/01/08 20:36:14;;;;;;;14.55;9.15;;;;;;;7.50;100.00;98739.28;20792034;28;20052;-71
2023/01/08 20:46:15;;;;;;;19.08;11.77;;;;;;;7.48;100.00;98720.28;20805489;28;20478;-72
2023/01/08 20:56:16;;;;;;;22.02;12.30;;;;;;;7.50;100.00;98713.25;20805507;28;20045;-72
2023/01/08 21:06:18;;;;;;;23.00;13.88;;;;;;;7.56;100.00;98705.25;20804392;28;20060;-72
2023/01/08 21:16:19;;;;;;;17.73;10.05;;;;;;;7.60;100.00;98683.41;20803599;28;20056;-72
2023/01/08 21:26:23;;;;;;;14.30;8.18;;;;;;;7.67;100.00;98677.97;20793379;28;20061;-73
2023/01/08 21:36:24;;;;;;;12.63;6.80;;;;;;;7.79;100.00;98660.25;20801296;28;20041;-73
2023/01/08 21:46:25;;;;;;;10.18;5.90;;;;;;;7.89;100.00;98640.81;20801355;28;20395;-73
2023/01/08 21:56:27;;;;;;;13.45;7.40;;;;;;;7.87;100.00;98635.66;20801988;28;20057;-72
2023/01/08 22:06:28;;;;;;;13.95;8.63;;;;;;;7.85;100.00;98608.78;20801234;28;20053;-73
2023/01/08 22:16:29;;;;;;;12.43;7.70;;;;;;;7.83;100.00;98583.69;20801462;28;20045;-73
2023/01/08 22:26:33;;;;;;;11.93;7.75;;;;;;;7.83;100.00;98579.31;20801669;28;20497;-73
2023/01/08 22:36:35;;;;;;;10.67;6.83;;;;;;;7.89;100.00;98589.53;20802831;28;20128;-73
2023/01/08 22:46:36;;;;;;;13.00;8.52;;;;;;;7.94;100.00;98598.03;20815466;28;20045;-73
2023/01/08 22:56:37;;;;;;;13.18;7.32;;;;;;;7.99;100.00;98592.69;20814433;28;20410;-72
2023/01/08 23:06:39;;;;;;;11.23;6.55;;;;;;;8.01;100.00;98603.06;20812511;28;20076;-72
2023/01/08 23:16:40;;;;;;;9.35;5.28;;;;;;;8.00;100.00;98597.00;20813411;28;20048;-72
2023/01/08 23:26:42;;;;;;;9.05;4.43;;;;;;;8.02;100.00;98596.94;20814345;28;20096;-72
2023/01/08 23:36:43;;;;;;;7.78;3.58;;;;;;;8.04;100.00;98574.28;20813973;28;20289;-72
2023/01/08 23:46:44;;;;;;;5.28;2.88;;;;;;;8.18;100.00;98566.81;20812285;28;20053;-73
2023/01/08 23:56:45;;;;;;;5.60;2.58;;;;;;;8.08;100.00;98547.22;20812657;28;20119;-72
